Nearby METAR Reports

 

KORH - Worcester, Massachusetts, USA
Distance from station: NW 4mi, 7km
Updated: Thu, 21-Feb-2019 10:17am EST
Mostly cloudy
Mostly cloudy
 Wind from W
Wind: W 7 mph , 11 km/h
Temperature: 30°F , -1°C
Wind Chill: 23°F , -5°C
Dew Point: 30°F , -1°C
Humidity: 100%
Barometer: 29.81 inHg , 1009.5 hPa
Clouds: Mostly cloudy
Visibility: 10 miles , 16 km
Cloud details: Partly cloudy 400 ft
Mostly cloudy 2800 ft
2019/02/21 15:17 KORH 211517Z 26006KT 10SM SCT004 BKN028 M01/M01 A2981 RMK AO2 T10061011
KBOS - Boston, Massachusetts, USA
Distance from station: ENE 42mi, 68km
Updated: Thu, 21-Feb-2019 10:12am EST
Haze, Overcast
Haze, Overcast
 Wind from W
Wind: W 6 mph , 9 km/h
Temperature: 34°F , 1°C
Wind Chill: 29°F , -2°C
Dew Point: 28°F , -2°C
Humidity: 81%
Barometer: 29.85 inHg , 1010.8 hPa
Summary: Haze
Clouds: Overcast
Visibility: 6 miles , 10 km
Cloud details: Mostly cloudy 600 ft
Overcast 4600 ft
2019/02/21 15:12 KBOS 211512Z 28005KT 6SM HZ BKN006 OVC046 01/M02 A2985 RMK AO2 BINOVC T00111017
 
KCQX - Chatham, Massachusetts, USA
Distance from station: SE 102mi, 164km
Updated: Thu, 21-Feb-2019 10:00am EST
Overcast
Overcast
 Wind from NW
Wind: NW 8 mph , 13 km/h, Gust: 17 mph , 28 km/h
Temperature: 39°F , 4°C
Wind Chill: 33°F , 1°C
Dew Point: 37°F , 3°C
Humidity: 93%
Barometer: 29.81 inHg , 1009.5 hPa
Clouds: Overcast
Visibility: 10 miles , 16 km
Cloud details: Overcast 500 ft
2019/02/21 15:00 KCQX 211500Z AUTO 31007G15KT 240V360 10SM OVC005 04/03 A2981 RMK AO2 T00390028
KMVY - Marthas Vineyard, Massachusetts, USA
Distance from station: SE 84mi, 135km
Updated: Thu, 21-Feb-2019 10:21am EST
Overcast
Overcast
 Wind from NW
Wind: NW 7 mph , 11 km/h
Temperature: 37°F , 3°C
Wind Chill: 32°F , 0°C
Dew Point: 37°F , 3°C
Humidity: 100%
Barometer: 29.83 inHg , 1010.2 hPa
Clouds: Overcast
Visibility: 10 miles , 16 km
Cloud details: Overcast 600 ft
2019/02/21 15:21 KMVY 211521Z 31006KT 10SM OVC006 03/03 A2983 RMK AO2 CIG 004V008 T00280028
 
KPVC - Provincetown, Massachusetts, USA
Distance from station: NNW 85mi, 136km
Updated: Thu, 21-Feb-2019 10:24am EST
Overcast
Overcast
 Wind from WNW
Wind: WNW 8 mph , 13 km/h
Temperature: 37°F , 3°C
Wind Chill: 31°F , -1°C
Dew Point: 37°F , 3°C
Humidity: 100%
Barometer: 29.83 inHg , 1010.2 hPa
Clouds: Overcast
Visibility: 10 miles , 16 km
Cloud details: Mostly cloudy 600 ft
Overcast 1300 ft
2019/02/21 15:24 KPVC 211524Z AUTO 30007KT 10SM BKN006 OVC013 03/03 A2983 RMK AO2
KAQW - Savoy, Massachusetts, USA
Distance from station: NNW 66mi, 106km
Updated: Thu, 21-Feb-2019 9:52am EST
Overcast
Overcast
 Wind from varies
Wind: varies 6 mph , 9 km/h
Temperature: 36°F , 2°C
Wind Chill: 31°F , -1°C
Dew Point: 32°F , 0°C
Humidity: 87%
Barometer: 29.86 inHg , 1011.2 hPa
Clouds: Overcast
Visibility: 10 miles , 16 km
Cloud details: Overcast 2200 ft
2019/02/21 14:52 KAQW 211452Z AUTO VRB05KT 10SM OVC022 02/00 A2986 RMK AO2 SLP121 60000 I1001 I3001 T00170000 51005
 
KIZG - Fryeburg, Maine, USA
Distance from station: NNE 133mi, 214km
Updated: Thu, 21-Feb-2019 9:54am EST
Mist, Mostly cloudy
Mist, Mostly cloudy
 Wind from calm
Wind: Calm
Temperature: 25°F , -4°C
Dew Point: 19°F , -7°C
Humidity: 80%
Barometer: 29.81 inHg , 1009.5 hPa
Summary: Mist
Clouds: Mostly cloudy
Visibility: 5 miles , 8 km
Cloud details: Few Clouds 2100 ft
Mostly cloudy 4000 ft
2019/02/21 14:54 KIZG 211454Z AUTO 00000KT 5SM BR FEW021 BKN040 M04/M07 A2981 RMK AO2 SNB05E47 SLP103 P0000 60002 T10441067 58025
KMWN - Mt Washington, New Hampshire, USA
Distance from station: NNE 146mi, 234km
Updated: Thu, 21-Feb-2019 9:48am EST
Freezing fog, Blowing, Snow, Overcast
Freezing fog, Blowing, Snow, Overcast
 Wind from W
Wind: W 58 mph , 93 km/h, Gust: 68 mph , 109 km/h
Temperature: 18°F , -8°C
Wind Chill: -7°F , -22°C
Dew Point: 18°F , -8°C
Humidity: 100%
Summary: Freezing fog, Blowing, Snow
Clouds: Overcast
Visibility: 1/16 mile , 0.1 km
Cloud details: Overcast 100 ft
2019/02/21 14:48 KMWN 211448Z 28050G59KT 1/16SM FZFG BLSN VV001 M08/M08 RMK SHSNE10 VRY LGT ICG
 
KBML - Berlin, New Hampshire, USA
Distance from station: NNE 160mi, 257km
Updated: Thu, 21-Feb-2019 9:52am EST
Overcast
Overcast
 Wind from NNW
Wind: NNW 5 mph , 7 km/h
Temperature: 27°F , -3°C
Wind Chill: 21°F , -6°C
Dew Point: 21°F , -6°C
Humidity: 80%
Barometer: 29.74 inHg , 1007.1 hPa
Clouds: Overcast
Visibility: 10 miles , 16 km
Cloud details: Overcast 2200 ft
2019/02/21 14:52 KBML 211452Z AUTO 34004KT 10SM OVC022 M03/M06 A2974 RMK AO2 SNE04 SLP092 P0000 60001 T10331056 58015